LFRZ 221500Z AUTO 25013KT 9999 OVC017 12/09 Q1031 NOSIG

ElémentsDécodage
LFRZ Station météo située sur l'aérodrome de SAINT-NAZAIRE Montoir
221500Z émis le 22 du mois à 15h00 UTC
AUTO Bulletin édité par un automate
25013KT vent du 250°, 13 noeuds
9999 visibilité horizontale supérieure à 10 Km
OVC017 couverture nuageuse totale (8/8) à 1700 pieds
12/09 température 12°C, point de rosée 09°C
 soit une humidité relative de 82%
Q1031 la pression au niveau de la mer (QNH) est de 1031 hPa
NOSIG Pas de changement significatif prévu au cours des deux heures suivant l'heure de l'observation